Time;durP1;ratioP1;P1;durP2;ratioP2;P2;SDS_P1;SDS_P2;PMS_P1;PMS_P2;Temp;Humidity;BMP_temperature;BMP_pressure;BME280_temperature;BME280_humidity;BME280_pressure;Samples;Min_cycle;Max_cycle;Signal;HPM_P1;HPM_P2
2023/07/06 05:00:36;;;;;;;;;8.00;7.33;;;;;18.45;67.50;-19701.41;5937845;23;45942;-84
2023/07/06 05:03:06;;;;;;;;;6.33;6.33;;;;;18.30;67.58;-19697.41;4973648;28;46368;-84
2023/07/06 05:05:34;;;;;;;;;7.67;7.33;;;;;18.43;67.38;-19700.88;4969242;28;45485;-84
2023/07/06 05:07:59;;;;;;;;;9.00;7.33;;;;;18.51;67.20;-19703.03;4967736;28;45548;-84
2023/07/06 05:10:26;;;;;;;;;8.00;8.00;;;;;18.54;67.26;-19703.81;4958503;28;45473;-84
2023/07/06 05:12:52;;;;;;;;;10.00;10.00;;;;;18.49;66.65;-19702.47;4969344;28;46596;-83
2023/07/06 05:15:17;;;;;;;;;8.67;8.67;;;;;18.58;66.73;-19704.63;4976729;28;45438;-83
2023/07/06 05:17:43;;;;;;;;;10.67;10.00;;;;;18.64;66.76;-19706.38;4961806;28;45807;-84
2023/07/06 05:20:14;;;;;;;;;10.00;8.33;;;;;18.67;66.40;-19707.03;4976620;28;45350;-83
2023/07/06 05:22:43;;;;;;;;;6.67;6.00;;;;;18.64;65.91;-19706.38;4976084;28;45676;-83
2023/07/06 05:25:10;;;;;;;;;12.33;10.00;;;;;18.71;65.89;-19708.22;4964504;28;45565;-83
2023/07/06 05:27:36;;;;;;;;;17.33;10.00;;;;;18.75;65.82;-19709.16;4968225;28;45504;-84
2023/07/06 05:30:03;;;;;;;;;7.67;7.00;;;;;18.79;65.92;-19710.09;4969958;28;45445;-84
2023/07/06 05:32:28;;;;;;;;;8.67;8.67;;;;;18.67;65.38;-19707.16;4966235;28;46742;-83
2023/07/06 05:34:54;;;;;;;;;10.67;10.33;;;;;18.82;65.54;-19708.94;4964009;28;45486;-84
2023/07/06 05:37:20;;;;;;;;;9.67;9.67;;;;;18.77;65.82;-19709.84;4970270;28;45647;-83
2023/07/06 05:39:46;;;;;;;;;11.33;10.00;;;;;18.72;65.64;-19708.38;4971823;28;45574;-84
2023/07/06 05:42:12;;;;;;;;;11.67;10.33;;;;;18.94;65.44;-19714.13;4974066;28;47442;-83
2023/07/06 05:44:38;;;;;;;;;9.33;8.33;;;;;18.79;65.39;-19708.16;4970898;28;45465;-83
2023/07/06 05:47:03;;;;;;;;;9.00;9.00;;;;;18.98;65.03;-19713.34;4969881;28;45447;-84
2023/07/06 05:49:29;;;;;;;;;8.33;7.67;;;;;18.86;65.42;-19710.16;4968712;28;45398;-84
2023/07/06 05:51:55;;;;;;;;;8.33;7.33;;;;;19.10;64.95;-19716.28;4966709;28;45509;-83
2023/07/06 05:54:20;;;;;;;;;11.00;9.33;;;;;19.09;65.42;-19718.13;4970295;28;45429;-85
2023/07/06 05:56:46;;;;;;;;;8.67;8.67;;;;;18.69;65.29;-19705.72;4960690;28;45448;-84
2023/07/06 05:59:12;;;;;;;;;9.00;9.00;;;;;18.98;64.70;-19713.22;4967814;28;45611;-86
2023/07/06 06:01:37;;;;;;;;;10.00;10.00;;;;;19.10;65.04;-19716.41;4966772;28;46056;-87
2023/07/06 06:04:02;;;;;;;;;13.33;10.67;;;;;18.86;64.55;-19710.00;4968785;28;45503;-87
2023/07/06 06:06:28;;;;;;;;;9.67;8.67;;;;;19.41;63.98;-19724.44;4958667;28;45459;-82
2023/07/06 06:08:54;;;;;;;;;35.67;34.00;;;;;18.81;64.60;-19708.81;4971125;28;45565;-82
2023/07/06 06:11:20;;;;;;;;;9.00;6.00;;;;;19.34;63.82;-19722.69;4975672;28;46465;-82
2023/07/06 06:13:47;;;;;;;;;7.33;7.33;;;;;19.63;63.18;-19730.16;4973301;28;45465;-81
2023/07/06 06:16:13;;;;;;;;;11.67;11.67;;;;;19.71;63.04;-19732.31;4973717;28;46789;-83
2023/07/06 06:18:46;;;;;;;;;10.00;7.67;;;;;19.55;62.72;-19392.38;4976144;28;45493;-82
2023/07/06 06:21:12;;;;;;;;;9.33;7.00;;;;;19.74;62.48;-19397.38;4969608;28;47048;-87
2023/07/06 06:23:42;;;;;;;;;7.00;7.00;;;;;19.67;62.11;-19059.66;4964854;28;45682;-85
2023/07/06 06:26:07;;;;;;;;;8.67;8.00;;;;;19.76;61.71;-19061.97;4966816;28;45473;-85
2023/07/06 06:28:33;;;;;;;;;9.33;5.00;;;;;19.71;61.44;-18724.91;4969122;28;45414;-85
2023/07/06 06:31:05;;;;;;;;;7.00;6.00;;;;;19.94;61.45;-18730.66;4946726;28;47972;-86
2023/07/06 06:33:33;;;;;;;;;6.67;6.00;;;;;19.87;62.20;-18728.91;4972716;28;45479;-82
2023/07/06 06:35:59;;;;;;;;;6.67;6.00;;;;;19.91;60.55;-18729.78;4972130;28;45569;-84
2023/07/06 06:38:25;;;;;;;;;5.00;5.00;;;;;20.15;60.59;-18735.66;4971517;28;45569;-84
2023/07/06 06:40:51;;;;;;;;;7.00;6.00;;;;;19.28;60.46;-18714.38;4967886;28;45812;-84
2023/07/06 06:43:16;;;;;;;;;6.33;5.33;;;;;20.26;60.88;-18738.44;4965340;28;45434;-83
2023/07/06 06:45:42;;;;;;;;;3.00;3.00;;;;;20.26;60.75;-18738.31;4968224;28;45454;-83
2023/07/06 06:48:14;;;;;;;;;10.33;8.00;;;;;19.46;60.61;-18383.09;4967802;28;45653;-92
2023/07/06 06:50:39;;;;;;;;;10.00;8.00;;;;;20.52;59.93;-18408.44;4966192;28;45715;-84
2023/07/06 06:53:04;;;;;;;;;4.00;4.00;;;;;20.35;58.98;-17732.00;4975080;28;45517;-84
2023/07/06 06:55:30;;;;;;;;;5.00;5.00;;;;;19.79;59.58;-18055.16;4964894;28;45452;-84
2023/07/06 06:57:55;;;;;;;;;7.00;6.00;;;;;19.89;59.36;-17721.59;4970221;28;45627;-84
2023/07/06 07:00:20;;;;;;;;;6.00;5.00;;;;;20.76;59.13;-17741.34;4961570;28;53620;-84
2023/07/06 07:02:46;;;;;;;;;6.33;5.33;;;;;20.40;58.80;-17733.28;4967764;28;45524;-87
2023/07/06 07:05:12;;;;;;;;;5.67;5.00;;;;;20.66;58.97;-17739.13;4961489;28;45731;-86
2023/07/06 07:07:38;;;;;;;;;6.00;5.00;;;;;20.99;58.36;-17410.03;4961884;28;45439;-86
2023/07/06 07:10:10;;;;;;;;;3.33;3.33;;;;;20.94;58.26;-17409.00;4971452;28;46406;-85
2023/07/06 07:12:40;;;;;;;;;46.33;38.67;;;;;20.99;57.14;-17073.50;4958252;28;45414;-84
2023/07/06 07:15:09;;;;;;;;;9.33;7.00;;;;;21.15;57.48;-17413.66;4956454;28;45451;-84
2023/07/06 07:17:35;;;;;;;;;6.67;4.33;;;;;21.36;57.13;-17081.41;4970035;28;45818;-83
2023/07/06 07:20:01;;;;;;;;;4.00;4.00;;;;;21.45;56.91;-17083.53;4964759;28;45479;-83
2023/07/06 07:22:27;;;;;;;;;8.33;5.33;;;;;21.55;56.22;-16748.69;4964202;28;45757;-84
2023/07/06 07:24:53;;;;;;;;;4.00;3.67;;;;;21.19;56.53;-16741.09;4968765;28;45758;-84
2023/07/06 07:27:19;;;;;;;;;5.67;3.67;;;;;21.53;55.84;-16074.19;4970607;28;45496;-83
2023/07/06 07:29:47;;;;;;;;;4.00;4.00;;;;;21.69;55.32;-15740.38;4965312;28;46050;-84
2023/07/06 07:32:13;;;;;;;;;3.33;3.33;;;;;21.14;54.61;-15392.72;4967960;28;45524;-85
2023/07/06 07:34:38;;;;;;;;;4.00;2.00;;;;;21.03;55.46;-15390.75;4969207;28;45546;-86
2023/07/06 07:37:05;;;;;;;;;5.00;4.67;;;;;21.71;55.48;-16078.00;4964316;28;45485;-85
2023/07/06 07:39:31;;;;;;;;;2.67;2.67;;;;;21.49;55.40;-15736.59;4963284;28;48217;-84
2023/07/06 07:41:58;;;;;;;;;3.00;2.00;;;;;21.78;54.27;-15404.91;4968235;28;45516;-84
2023/07/06 07:44:28;;;;;;;;;4.00;2.33;;;;;21.22;54.13;-14720.50;4964525;28;45601;-84
2023/07/06 07:46:53;;;;;;;;;3.00;1.67;;;;;22.25;55.26;-15076.50;4963319;28;45541;-83
2023/07/06 07:49:18;;;;;;;;;2.00;2.00;;;;;22.10;53.52;-14398.81;4967156;28;46372;-84
2023/07/06 07:51:44;;;;;;;;;5.00;3.67;;;;;22.32;54.13;-14402.66;4947590;28;60423;-84
2023/07/06 07:54:09;;;;;;;;;5.67;4.00;;;;;22.24;54.05;-13726.16;4965369;28;45377;-84
2023/07/06 07:56:35;;;;;;;;;3.00;3.00;;;;;22.20;53.44;-13050.28;4970186;28;45901;-85
2023/07/06 07:59:00;;;;;;;;;4.00;3.67;;;;;22.21;53.20;-12712.78;4963619;28;45727;-84
2023/07/06 08:01:29;;;;;;;;;3.00;3.00;;;;;22.36;52.89;-12714.91;4965566;28;46529;-83
2023/07/06 08:03:54;;;;;;;;;5.33;5.33;;;;;22.23;53.43;-12713.00;4947990;28;45739;-84
2023/07/06 08:06:21;;;;;;;;;5.00;5.00;;;;;22.43;52.75;-12378.22;4959718;28;45643;-84
2023/07/06 08:08:47;;;;;;;;;5.00;5.00;;;;;21.67;53.43;-13042.22;4961055;28;47272;-84
2023/07/06 08:11:21;;;;;;;;;2.00;2.00;;;;;21.80;53.38;-12706.72;4961990;28;45554;-84
2023/07/06 08:13:51;;;;;;;;;4.00;4.00;;;;;22.18;51.86;-12036.97;4961991;28;45584;-85
2023/07/06 08:16:19;;;;;;;;;6.00;4.00;;;;;22.75;52.07;-12044.81;4958607;28;45996;-84
2023/07/06 08:18:48;;;;;;;;;4.00;4.00;;;;;22.35;51.67;-11701.44;4962560;28;46257;-85
2023/07/06 08:21:14;;;;;;;;;5.00;5.00;;;;;22.93;52.28;-12047.19;4958995;28;46973;-84
2023/07/06 08:23:47;;;;;;;;;7.00;4.33;;;;;22.90;51.68;-10694.19;4962546;28;45578;-80
2023/07/06 08:26:12;;;;;;;;;4.00;4.00;;;;;22.96;51.45;-10694.91;4960239;28;45490;-80
2023/07/06 08:28:39;;;;;;;;;5.00;5.00;;;;;22.86;52.31;-11031.84;4967066;28;46287;-81
2023/07/06 08:31:12;;;;;;;;;7.33;5.33;;;;;23.09;51.28;-10696.31;4962959;28;45540;-83
2023/07/06 08:33:37;;;;;;;;;5.33;4.00;;;;;23.23;50.63;-10021.06;4967360;28;45571;-83
2023/07/06 08:36:07;;;;;;;;;7.67;6.00;;;;;23.10;51.10;-10019.78;4962430;28;45771;-83
2023/07/06 08:38:33;;;;;;;;;16.33;16.33;;;;;23.48;50.06;-9346.44;4960207;28;46278;-82
2023/07/06 08:41:03;;;;;;;;;6.33;5.00;;;;;23.68;50.51;-9687.09;4963276;28;46790;-82
2023/07/06 08:43:31;;;;;;;;;3.33;2.33;;;;;23.94;49.78;-9350.75;4962933;28;45548;-85
2023/07/06 08:46:00;;;;;;;;;8.00;5.00;;;;;24.23;48.89;-8336.22;4962089;28;46779;-84
2023/07/06 08:48:30;;;;;;;;;6.67;5.00;;;;;24.59;47.76;-6641.91;4958962;28;47019;-84
2023/07/06 08:50:59;;;;;;;;;6.00;6.00;;;;;25.02;47.94;-6983.78;4962268;28;45541;-85
2023/07/06 08:53:30;;;;;;;;;6.00;4.67;;;;;25.55;46.67;-5966.66;4964623;28;45556;-84
2023/07/06 08:55:57;;;;;;;;;7.33;5.00;;;;;25.99;45.06;-1542.00;4968466;28;45653;-84
2023/07/06 08:58:29;;;;;;;;;3.33;3.00;;;;;26.55;43.54;5627.19;4969339;28;45521;-84
2023/07/06 09:01:01;;;;;;;;;4.00;4.00;;;;;26.99;43.38;6317.28;4963318;28;45641;-84
2023/07/06 09:03:30;;;;;;;;;3.00;3.00;;;;;27.43;42.23;11117.44;4968879;28;45492;-86
2023/07/06 09:05:56;;;;;;;;;4.00;4.00;;;;;28.09;40.92;18244.63;4966335;28;45595;-84
2023/07/06 09:08:23;;;;;;;;;4.00;4.00;;;;;28.51;40.70;25953.66;4971111;28;46349;-86
2023/07/06 09:10:49;;;;;;;;;4.00;4.00;;;;;28.33;39.61;34108.88;4971242;28;45576;-85
2023/07/06 09:13:36;;;;;;;;;4.00;4.00;;;;;29.26;39.80;35187.69;4964554;28;45509;-84
2023/07/06 09:16:03;;;;;;;;;6.00;5.00;;;;;29.88;37.43;45434.06;4964799;28;46734;-83
2023/07/06 09:18:31;;;;;;;;;17.33;15.67;;;;;29.63;37.69;48021.88;4964459;28;47093;-83
2023/07/06 09:20:58;;;;;;;;;4.67;4.67;;;;;30.41;37.28;49345.31;4959620;28;47083;-85
2023/07/06 09:23:24;;;;;;;;;6.67;6.67;;;;;30.76;37.98;49482.78;4960129;28;45537;-83
2023/07/06 09:25:50;;;;;;;;;4.33;4.33;;;;;31.64;36.23;50337.78;4961267;28;45528;-87
2023/07/06 09:28:23;;;;;;;;;5.00;5.00;;;;;33.11;34.20;57091.75;4959936;28;47177;-86
2023/07/06 09:31:07;;;;;;;;;6.33;6.33;;;;;33.99;32.22;62118.06;4962062;28;45949;-87
2023/07/06 09:33:34;;;;;;;;;4.75;4.75;;;;;32.45;32.21;64256.88;4963895;28;45517;-88
2023/07/06 09:36:00;;;;;;;;;5.00;5.00;;;;;31.86;32.65;65097.94;4962268;28;45660;-85
2023/07/06 09:38:27;;;;;;;;;6.33;5.67;;;;;31.51;32.98;65415.06;4960299;28;46965;-85
2023/07/06 09:40:53;;;;;;;;;5.67;5.00;;;;;32.71;31.16;65136.38;4966717;23;45790;-85
2023/07/06 09:43:21;;;;;;;;;5.00;5.00;;;;;34.18;30.47;65214.16;4965303;28;45569;-85
2023/07/06 09:45:49;;;;;;;;;7.00;5.00;;;;;34.48;29.25;65784.28;4953120;28;46806;-85
2023/07/06 09:48:36;;;;;;;;;5.00;5.00;;;;;35.61;28.92;66444.66;4956795;28;47303;-85
2023/07/06 09:51:11;;;;;;;;;6.00;6.00;;;;;33.96;28.92;67161.81;4953880;28;46523;-85
2023/07/06 09:54:00;;;;;;;;;6.00;6.00;;;;;33.98;29.22;67034.63;4950863;28;45505;-83
2023/07/06 09:56:28;;;;;;;;;5.33;5.00;;;;;34.58;29.46;67060.41;4950952;28;45832;-81
2023/07/06 09:58:54;;;;;;;;;5.00;5.00;;;;;34.87;27.75;67143.06;4954246;28;45811;-81
2023/07/06 10:01:45;;;;;;;;;6.00;5.00;;;;;35.27;28.46;67156.94;4952403;28;45547;-81
2023/07/06 10:04:59;;;;;;;;;5.67;5.67;;;;;35.04;29.05;67499.34;4934907;28;45542;-84
2023/07/06 10:07:42;;;;;;;;;5.00;5.00;;;;;34.06;29.40;67677.50;4955072;28;45699;-84
2023/07/06 10:10:28;;;;;;;;;4.67;4.67;;;;;33.13;29.70;67847.00;4954667;28;45557;-84
2023/07/06 10:13:18;;;;;;;;;5.00;5.00;;;;;32.64;30.79;67818.16;4955004;28;45458;-84
2023/07/06 10:15:56;;;;;;;;;5.00;5.00;;;;;32.51;31.44;67774.16;4957198;28;45660;-84
2023/07/06 10:19:04;;;;;;;;;4.33;4.33;;;;;32.11;32.24;67718.06;4956694;28;46492;-84
2023/07/06 10:21:41;;;;;;;;;6.00;6.00;;;;;32.87;31.13;67631.19;4955569;28;46170;-84
2023/07/06 10:27:04;;;;;;;;;5.00;5.00;;;;;34.05;30.17;67552.91;5311721;23;45803;-84
2023/07/06 10:29:56;;;;;;;;;5.00;4.33;;;;;34.24;29.87;67470.53;4943247;28;45722;-82
2023/07/06 10:32:43;;;;;;;;;4.00;4.00;;;;;34.37;28.47;67511.78;4948766;28;46268;-83
2023/07/06 10:35:20;;;;;;;;;3.67;3.67;;;;;35.34;28.73;67491.50;4942671;28;45536;-83
2023/07/06 10:37:48;;;;;;;;;5.00;4.00;;;;;35.18;27.81;67468.75;4939768;28;45605;-84
2023/07/06 10:40:32;;;;;;;;;3.67;3.67;;;;;35.46;27.57;67384.91;4936785;28;46154;-83
2023/07/06 10:43:12;;;;;;;;;3.67;3.67;;;;;35.41;28.15;67464.38;4941061;28;47960;-83
2023/07/06 10:45:49;;;;;;;;;4.00;4.00;;;;;35.71;27.25;67484.00;4937128;28;45545;-83
2023/07/06 10:48:16;;;;;;;;;3.00;3.00;;;;;35.86;26.50;67442.91;4946697;28;45552;-83
2023/07/06 10:50:49;;;;;;;;;3.67;3.00;;;;;36.07;27.57;67439.50;4941924;28;45531;-83
2023/07/06 10:53:34;;;;;;;;;5.33;4.00;;;;;36.26;29.11;67474.56;4940882;28;45589;-84
2023/07/06 10:56:02;;;;;;;;;2.00;2.00;;;;;36.47;28.82;67511.31;4943805;28;45571;-83
2023/07/06 10:58:34;;;;;;;;;1.67;1.67;;;;;36.59;28.84;67533.38;4945092;28;45510;-84
2023/07/06 11:01:45;;;;;;;;;4.00;2.33;;;;;36.73;28.06;67458.00;4943340;28;45494;-85
2023/07/06 11:04:44;;;;;;;;;7.00;4.00;;;;;36.61;26.20;67411.75;4981518;23;47354;-83
2023/07/06 11:07:12;;;;;;;;;1.33;1.33;;;;;36.12;28.23;67645.63;4916118;28;45537;-83
2023/07/06 11:10:20;;;;;;;;;3.33;3.33;;;;;35.15;26.67;67679.09;4929576;28;45501;-81
2023/07/06 11:12:52;;;;;;;;;2.00;2.00;;;;;35.46;27.26;67598.78;4924071;28;45645;-83
2023/07/06 11:15:21;;;;;;;;;1.33;1.33;;;;;35.53;27.52;67760.28;4924827;28;45537;-81
2023/07/06 11:17:50;;;;;;;;;3.00;3.00;;;;;34.91;29.57;67874.47;4913426;28;46288;-84
2023/07/06 11:20:23;;;;;;;;;1.25;1.25;;;;;34.48;29.45;67911.56;4930380;28;45377;-84
2023/07/06 11:22:54;;;;;;;;;3.00;3.00;;;;;34.14;26.72;67746.53;4930280;28;45604;-89
2023/07/06 11:25:20;;;;;;;;;3.00;3.00;;;;;33.94;28.89;67801.38;4912453;28;46941;-87
2023/07/06 11:27:49;;;;;;;;;3.33;3.33;;;;;34.46;27.51;67821.97;4932305;28;45675;-94
2023/07/06 11:30:31;;;;;;;;;6.00;3.00;;;;;34.66;27.31;67926.94;4908794;28;45595;-87
2023/07/06 11:32:56;;;;;;;;;0.67;0.67;;;;;34.66;27.10;67835.75;4936134;28;45521;-85
2023/07/06 11:35:38;;;;;;;;;4.00;4.00;;;;;33.89;28.81;67921.22;4934295;28;45628;-88
2023/07/06 11:38:19;;;;;;;;;3.00;3.00;;;;;34.64;26.28;67902.66;4932540;28;45572;-83
2023/07/06 11:41:24;;;;;;;;;2.33;2.33;;;;;34.56;24.92;67945.56;4933915;28;45531;-84
2023/07/06 11:43:58;;;;;;;;;1.67;1.67;;;;;34.17;26.27;67923.50;4932726;28;45663;-85
2023/07/06 11:46:47;;;;;;;;;5.67;3.33;;;;;34.19;27.41;68016.38;4935073;28;46451;-88
2023/07/06 11:49:44;;;;;;;;;3.00;2.33;;;;;34.17;26.11;68068.34;4935026;28;45578;-85
2023/07/06 11:52:20;;;;;;;;;4.00;3.00;;;;;34.20;25.43;68058.13;4936530;28;45994;-84
2023/07/06 11:55:06;;;;;;;;;3.00;3.00;;;;;34.26;25.84;68040.38;4938706;28;45590;-84
2023/07/06 11:57:45;;;;;;;;;2.00;2.00;;;;;34.36;25.02;68043.16;4939235;28;46091;-84
2023/07/06 12:02:59;;;;;;;;;4.00;4.00;;;;;34.10;25.17;68054.75;4938276;28;45639;-83
2023/07/06 12:05:41;;;;;;;;;4.33;3.33;;;;;33.82;24.82;68202.25;4923752;28;45702;-84
2023/07/06 12:08:27;;;;;;;;;2.00;2.00;;;;;33.49;27.33;68235.13;4932908;28;47089;-84
2023/07/06 12:10:56;;;;;;;;;4.00;2.00;;;;;33.30;26.59;68249.22;4938594;28;45460;-83
2023/07/06 12:13:37;;;;;;;;;3.67;3.67;;;;;32.90;25.69;68376.34;4939034;28;45464;-83
2023/07/06 12:16:08;;;;;;;;;2.67;2.33;;;;;32.51;25.56;68469.44;4938713;28;45458;-83
2023/07/06 12:18:34;;;;;;;;;3.67;3.67;;;;;31.47;25.78;68440.97;4936431;28;45550;-82
2023/07/06 12:21:01;;;;;;;;;2.33;2.33;;;;;32.15;26.87;68565.31;4903715;28;46130;-83
2023/07/06 12:23:26;;;;;;;;;2.00;2.00;;;;;32.06;27.61;68541.09;4937643;28;45547;-83
2023/07/06 12:25:57;;;;;;;;;3.00;3.00;;;;;31.86;27.61;68618.84;4927359;28;45347;-85
2023/07/06 12:28:29;;;;;;;;;5.00;3.33;;;;;31.79;26.25;68646.19;4937717;28;47191;-84
2023/07/06 12:31:03;;;;;;;;;3.67;3.67;;;;;31.57;26.45;68624.28;4929612;28;45596;-84
2023/07/06 12:33:29;;;;;;;;;2.75;2.75;;;;;31.25;28.09;68598.25;4931577;28;45553;-84
2023/07/06 12:35:56;;;;;;;;;4.75;3.75;;;;;31.06;27.90;68588.09;4935916;28;45683;-84
2023/07/06 12:38:22;;;;;;;;;3.00;3.00;;;;;31.24;28.07;68649.00;4938381;28;45535;-84
2023/07/06 12:40:48;;;;;;;;;3.00;3.00;;;;;31.15;28.15;68704.03;4936194;28;45639;-84
2023/07/06 12:43:24;;;;;;;;;4.00;4.00;;;;;31.02;28.16;68697.53;4937599;28;45490;-84
2023/07/06 12:45:52;;;;;;;;;4.00;4.00;;;;;30.93;27.43;68802.25;4939228;28;45379;-84
2023/07/06 12:48:23;;;;;;;;;3.00;3.00;;;;;30.75;27.38;68753.75;4938027;28;45464;-84
2023/07/06 12:50:51;;;;;;;;;3.00;3.00;;;;;30.58;27.50;68808.66;4928679;28;45498;-83
2023/07/06 12:53:25;;;;;;;;;2.50;2.50;;;;;30.40;27.67;68817.47;4919769;28;45535;-84
2023/07/06 12:55:58;;;;;;;;;3.00;3.00;;;;;30.35;28.81;68844.34;4938182;28;45391;-84
2023/07/06 12:58:37;;;;;;;;;2.50;2.00;;;;;30.25;28.20;68831.00;4938421;28;47520;-84
2023/07/06 13:01:09;;;;;;;;;3.25;3.00;;;;;30.24;28.18;68807.97;4938626;28;45465;-84
2023/07/06 13:03:58;;;;;;;;;3.00;3.00;;;;;30.19;30.33;68834.25;4937774;28;45387;-83
2023/07/06 13:06:25;;;;;;;;;2.00;2.00;;;;;30.12;28.84;68766.59;4938994;28;45504;-83
2023/07/06 13:09:01;;;;;;;;;2.33;2.33;;;;;30.02;30.52;68861.19;4934690;28;45815;-84
2023/07/06 13:11:26;;;;;;;;;4.00;3.00;;;;;30.06;30.64;68803.75;4902508;28;45490;-83
2023/07/06 13:14:03;;;;;;;;;5.67;2.67;;;;;30.06;28.59;68831.03;4938606;28;45407;-83
2023/07/06 13:16:39;;;;;;;;;4.00;2.00;;;;;29.93;27.89;68848.44;4938859;28;45396;-83
2023/07/06 13:19:05;;;;;;;;;2.33;2.33;;;;;30.23;28.97;68860.78;4919209;28;46264;-83
2023/07/06 13:21:33;;;;;;;;;3.00;3.00;;;;;30.21;28.19;68837.19;4934802;28;45462;-83
2023/07/06 13:23:58;;;;;;;;;4.67;3.00;;;;;30.13;28.27;68857.75;4937586;28;45499;-84
2023/07/06 13:26:26;;;;;;;;;4.33;2.33;;;;;30.11;27.55;68882.72;4938425;28;45416;-83
2023/07/06 13:28:56;;;;;;;;;2.33;2.33;;;;;30.10;27.20;68908.78;4937509;28;45548;-84
2023/07/06 13:31:25;;;;;;;;;4.33;3.33;;;;;30.00;28.33;68856.69;4938257;28;45449;-84
2023/07/06 13:33:50;;;;;;;;;3.00;2.00;;;;;29.78;29.30;68817.13;4938229;28;45498;-84
2023/07/06 13:36:18;;;;;;;;;3.00;3.00;;;;;29.71;28.66;68902.16;4938070;28;45550;-84
2023/07/06 13:38:46;;;;;;;;;5.00;2.33;;;;;29.69;30.70;68848.03;4937725;28;46932;-83
2023/07/06 13:41:16;;;;;;;;;3.00;3.00;;;;;29.52;32.58;68836.72;4934980;28;45675;-85
2023/07/06 13:43:42;;;;;;;;;2.00;2.00;;;;;29.39;28.93;68886.81;4929705;28;45922;-85
2023/07/06 13:46:09;;;;;;;;;1.67;1.67;;;;;29.34;31.00;68873.34;4938405;28;45608;-85
2023/07/06 13:48:35;;;;;;;;;5.00;3.67;;;;;29.35;31.05;68863.59;4938061;28;46954;-85
2023/07/06 13:51:03;;;;;;;;;2.33;2.33;;;;;28.79;32.11;68888.59;4938048;28;45711;-84
2023/07/06 13:53:29;;;;;;;;;4.33;3.33;;;;;29.12;30.34;68948.16;4936144;28;45446;-83
2023/07/06 13:55:54;;;;;;;;;6.00;4.00;;;;;29.09;31.49;68911.94;4934996;28;45586;-88
2023/07/06 13:58:22;;;;;;;;;3.00;3.00;;;;;29.03;29.97;68976.81;4926782;28;45628;-87
2023/07/06 14:00:49;;;;;;;;;3.33;2.67;;;;;28.76;29.68;68948.25;4914626;28;46208;-89
2023/07/06 14:03:18;;;;;;;;;3.00;3.00;;;;;28.20;30.77;68786.00;4913013;28;45594;-89
2023/07/06 14:05:44;;;;;;;;;3.00;3.00;;;;;28.82;30.41;68873.06;4914480;28;45483;-88
2023/07/06 14:08:10;;;;;;;;;3.67;3.00;;;;;29.01;29.38;68958.13;4930974;28;46575;-86
2023/07/06 14:10:37;;;;;;;;;4.67;3.00;;;;;28.76;29.95;68910.16;4931220;28;45738;-85
2023/07/06 14:13:03;;;;;;;;;2.33;2.33;;;;;28.50;32.64;68847.41;4927921;28;45465;-85
2023/07/06 14:15:30;;;;;;;;;4.00;4.00;;;;;28.89;30.73;68883.47;4930766;28;45517;-85
2023/07/06 14:17:55;;;;;;;;;4.00;4.00;;;;;28.15;29.52;68850.81;4931011;28;45665;-85
2023/07/06 14:20:22;;;;;;;;;2.00;2.00;;;;;27.91;30.73;68828.53;4916904;28;45949;-85
2023/07/06 14:22:48;;;;;;;;;3.00;3.00;;;;;28.93;29.56;68934.47;4917562;28;45544;-86
2023/07/06 14:25:22;;;;;;;;;3.00;3.00;;;;;28.32;30.15;68799.56;4920188;28;45552;-92
2023/07/06 14:27:48;;;;;;;;;3.00;3.00;;;;;29.01;31.46;68909.13;4914257;28;48100;-91
2023/07/06 14:30:14;;;;;;;;;3.67;3.00;;;;;29.00;30.66;68954.22;4917480;28;45988;-91
2023/07/06 14:32:40;;;;;;;;;2.00;2.00;;;;;27.98;33.24;68776.97;4913955;28;46028;-95
2023/07/06 14:35:10;;;;;;;;;3.00;3.00;;;;;27.99;33.08;68772.72;4924153;28;45743;-96
2023/07/06 14:37:37;;;;;;;;;7.00;4.00;;;;;28.01;32.47;68907.09;4914068;28;47438;-94
2023/07/06 14:40:03;;;;;;;;;6.00;3.00;;;;;28.27;30.99;68839.31;4925872;28;45413;-93
2023/07/06 14:42:28;;;;;;;;;3.67;3.67;;;;;27.76;30.07;68808.69;4920256;28;45581;-92
2023/07/06 14:44:53;;;;;;;;;3.67;2.67;;;;;28.27;29.33;68886.13;4916422;28;45354;-91
2023/07/06 14:47:19;;;;;;;;;4.00;4.00;;;;;28.24;28.87;68863.56;4941247;28;46900;-92
2023/07/06 14:49:44;;;;;;;;;3.00;3.00;;;;;28.31;29.51;68852.19;4915530;28;45795;-92
2023/07/06 14:52:09;;;;;;;;;4.00;4.00;;;;;28.67;29.27;68986.03;4920068;28;45571;-93
2023/07/06 14:54:35;;;;;;;;;3.67;3.67;;;;;28.60;30.62;68910.91;4921759;28;45427;-96
2023/07/06 14:57:00;;;;;;;;;4.00;3.00;;;;;27.99;30.94;68794.47;4921728;28;48590;-94
2023/07/06 14:59:26;;;;;;;;;4.33;3.00;;;;;27.34;31.32;68824.91;4919890;28;45588;-93
2023/07/06 15:01:51;;;;;;;;;4.00;3.33;;;;;27.84;29.35;68814.84;4925870;28;45634;-94
2023/07/06 15:04:17;;;;;;;;;3.33;3.00;;;;;27.48;32.43;68797.38;4938084;28;46560;-94
2023/07/06 15:06:42;;;;;;;;;3.00;3.00;;;;;28.42;29.59;69090.94;4920174;28;47543;-94
2023/07/06 15:09:08;;;;;;;;;4.67;3.00;;;;;27.32;33.38;68741.69;4921613;28;45844;-94
2023/07/06 15:11:33;;;;;;;;;3.33;3.33;;;;;27.19;31.90;68842.50;4919969;28;45524;-91
2023/07/06 15:13:59;;;;;;;;;3.00;3.00;;;;;27.84;30.83;68893.66;4919865;28;45420;-92
2023/07/06 15:16:24;;;;;;;;;5.00;4.00;;;;;28.07;30.60;68925.63;4922182;28;47030;-96
2023/07/06 15:18:49;;;;;;;;;4.33;3.00;;;;;27.37;28.98;68787.75;4921955;28;45454;-94
2023/07/06 15:21:18;;;;;;;;;3.00;3.00;;;;;27.60;30.81;68862.56;4920366;28;45688;-92
2023/07/06 15:23:43;;;;;;;;;3.67;3.33;;;;;26.73;32.80;68728.16;4936115;28;45486;-92
2023/07/06 15:26:10;;;;;;;;;4.00;3.33;;;;;27.27;33.71;68771.09;4920884;28;46927;-91
2023/07/06 15:28:36;;;;;;;;;3.33;3.33;;;;;27.62;30.39;68966.03;4940012;28;45504;-90
2023/07/06 15:31:02;;;;;;;;;3.67;3.67;;;;;27.02;30.33;68926.16;4940725;28;45506;-92
2023/07/06 15:33:27;;;;;;;;;3.00;3.00;;;;;27.87;32.19;68910.78;4942570;28;45479;-93
2023/07/06 15:35:53;;;;;;;;;3.00;3.00;;;;;27.69;31.78;68843.31;4943311;28;47252;-96
